Time;durP1;ratioP1;P1;durP2;ratioP2;P2;SDS_P1;SDS_P2;PMS_P1;PMS_P2;Temp;Humidity;BMP_temperature;BMP_pressure;BME280_temperature;BME280_humidity;BME280_pressure;Samples;Min_cycle;Max_cycle;Signal;HPM_P1;HPM_P2
2022/03/17 00:01:48;;;;;;;36.60;33.00;;;10.20;98.60;;;;;;6206411;23;20400;-85
2022/03/17 00:04:15;;;;;;;34.97;31.50;;;10.20;98.60;;;;;;6195007;23;20426;-85
2022/03/17 00:06:43;;;;;;;34.97;31.40;;;10.10;98.80;;;;;;6189629;23;20402;-85
2022/03/17 00:09:09;;;;;;;33.07;29.87;;;10.10;98.60;;;;;;6197542;23;20394;-84
2022/03/17 00:11:36;;;;;;;37.23;33.43;;;10.10;98.50;;;;;;6197489;23;20414;-85
2022/03/17 00:14:03;;;;;;;34.30;30.70;;;10.10;98.50;;;;;;6202070;23;20760;-85
2022/03/17 00:16:30;;;;;;;32.30;28.43;;;10.10;98.50;;;;;;6206469;23;20396;-84
2022/03/17 00:18:57;;;;;;;34.80;31.27;;;10.10;98.50;;;;;;6193635;23;20437;-85
2022/03/17 00:21:24;;;;;;;36.03;31.97;;;10.10;98.50;;;;;;6200350;23;20425;-84
2022/03/17 00:23:52;;;;;;;34.80;31.30;;;10.10;98.60;;;;;;6202814;23;20438;-85
2022/03/17 00:26:19;;;;;;;36.80;33.13;;;10.10;98.50;;;;;;6201189;23;20413;-86
2022/03/17 00:28:46;;;;;;;36.40;32.77;;;10.00;98.40;;;;;;6199228;23;20446;-85
2022/03/17 00:31:14;;;;;;;35.97;32.37;;;10.00;98.40;;;;;;6196142;23;20413;-84
2022/03/17 00:33:41;;;;;;;34.27;30.77;;;10.00;98.40;;;;;;6199606;23;20437;-84
2022/03/17 00:36:08;;;;;;;37.03;33.23;;;10.00;98.40;;;;;;6193037;23;20409;-85
2022/03/17 00:38:34;;;;;;;36.07;32.37;;;10.00;98.40;;;;;;6198123;23;20505;-84
2022/03/17 00:41:02;;;;;;;35.77;32.07;;;10.10;98.30;;;;;;6196705;23;20438;-86
2022/03/17 00:43:29;;;;;;;37.23;33.30;;;10.00;98.20;;;;;;6192632;23;20390;-84
2022/03/17 00:45:56;;;;;;;37.40;33.50;;;9.90;99.10;;;;;;6193777;23;20408;-85
2022/03/17 00:48:23;;;;;;;36.67;32.80;;;9.90;99.20;;;;;;6192700;23;20402;-85
2022/03/17 00:50:49;;;;;;;37.63;33.63;;;9.90;99.40;;;;;;6192683;23;20394;-85
2022/03/17 00:53:16;;;;;;;34.87;31.37;;;9.90;99.50;;;;;;6192946;23;20792;-85
2022/03/17 00:55:43;;;;;;;39.73;35.63;;;9.90;99.50;;;;;;6192180;23;20418;-84
2022/03/17 00:58:11;;;;;;;40.23;35.87;;;9.90;99.70;;;;;;6192534;23;20413;-84
2022/03/17 01:00:38;;;;;;;38.80;34.83;;;9.80;99.80;;;;;;6192079;23;20442;-85
2022/03/17 01:03:06;;;;;;;36.50;32.67;;;9.80;99.90;;;;;;6201590;23;20425;-84
2022/03/17 01:05:33;;;;;;;38.10;33.77;;;9.80;99.90;;;;;;6205315;23;20736;-85
2022/03/17 01:07:59;;;;;;;37.07;33.17;;;9.80;99.90;;;;;;6193334;23;20405;-85
2022/03/17 01:10:26;;;;;;;38.73;34.03;;;9.70;99.90;;;;;;6191891;23;20402;-84
2022/03/17 01:12:53;;;;;;;38.37;34.37;;;9.70;99.90;;;;;;6200472;23;20408;-85
2022/03/17 01:15:21;;;;;;;38.70;34.80;;;9.60;99.90;;;;;;6192960;23;20426;-85
2022/03/17 01:17:48;;;;;;;36.97;33.07;;;9.60;99.90;;;;;;6192619;23;20393;-84
2022/03/17 01:20:15;;;;;;;38.23;34.13;;;9.60;99.90;;;;;;6196319;23;20915;-84
2022/03/17 01:22:42;;;;;;;39.03;34.80;;;9.60;99.90;;;;;;6199275;23;20413;-85
2022/03/17 01:25:09;;;;;;;38.00;33.97;;;9.60;99.90;;;;;;6195155;23;20420;-85
2022/03/17 01:27:36;;;;;;;39.70;35.60;;;9.60;99.90;;;;;;6193067;23;20896;-85
2022/03/17 01:30:05;;;;;;;34.80;31.07;;;9.60;99.90;;;;;;6201892;23;20394;-85
2022/03/17 01:32:33;;;;;;;37.50;33.87;;;9.60;99.90;;;;;;6202827;23;20413;-85
2022/03/17 01:35:00;;;;;;;39.07;34.87;;;9.60;99.90;;;;;;6205459;23;20473;-84
2022/03/17 01:37:27;;;;;;;40.30;36.10;;;9.60;99.90;;;;;;6201440;23;20406;-85
2022/03/17 01:39:54;;;;;;;36.83;32.83;;;9.60;99.90;;;;;;6200290;23;20464;-84
2022/03/17 01:42:21;;;;;;;47.80;34.53;;;9.60;99.90;;;;;;6202032;23;20907;-84
2022/03/17 01:44:48;;;;;;;38.00;33.90;;;9.60;99.90;;;;;;6199876;23;20426;-85
2022/03/17 01:47:31;;;;;;;40.43;35.90;;;9.50;99.90;;;;;;6195137;23;20470;-85
2022/03/17 01:50:01;;;;;;;39.23;34.47;;;9.40;99.90;;;;;;6192681;23;20436;-85
2022/03/17 01:52:28;;;;;;;41.70;37.27;;;9.40;99.90;;;;;;6192410;23;20386;-84
2022/03/17 01:54:55;;;;;;;39.73;35.57;;;9.40;99.90;;;;;;6191913;23;20440;-84
2022/03/17 01:57:23;;;;;;;39.23;35.07;;;9.40;99.90;;;;;;6195192;23;20414;-84
2022/03/17 01:59:51;;;;;;;39.40;34.43;;;9.40;99.90;;;;;;6203364;23;20425;-85
2022/03/17 02:02:18;;;;;;;41.77;35.83;;;9.40;99.90;;;;;;6208305;23;20406;-85
2022/03/17 02:04:47;;;;;;;39.43;35.30;;;9.40;99.90;;;;;;6193501;23;20426;-84
2022/03/17 02:07:16;;;;;;;39.33;35.10;;;9.40;99.90;;;;;;6197676;23;20434;-84
2022/03/17 02:09:44;;;;;;;39.83;35.67;;;9.40;99.90;;;;;;6203617;23;20474;-84
2022/03/17 02:14:59;;;;;;;39.93;35.60;;;9.40;99.90;;;;;;6194785;23;20413;-84
2022/03/17 02:17:27;;;;;;;39.00;34.80;;;9.40;99.90;;;;;;6196493;23;20583;-85
2022/03/17 02:19:54;;;;;;;42.60;35.17;;;9.40;99.90;;;;;;6192155;23;20488;-85
2022/03/17 02:22:23;;;;;;;39.87;35.47;;;9.40;99.90;;;;;;6191809;23;20418;-86
2022/03/17 02:27:49;;;;;;;41.80;35.97;;;9.30;99.90;;;;;;6129505;23;20487;-85
2022/03/17 02:30:18;;;;;;;43.93;37.90;;;9.40;99.90;;;;;;6185650;23;20730;-84
2022/03/17 02:32:45;;;;;;;40.80;36.53;;;9.40;99.90;;;;;;6193827;23;20401;-85
2022/03/17 02:35:14;;;;;;;42.50;37.03;;;9.50;99.90;;;;;;6193071;23;20425;-85
2022/03/17 02:37:41;;;;;;;40.77;36.57;;;9.50;99.90;;;;;;6201796;23;20402;-85
2022/03/17 02:40:12;;;;;;;41.00;36.60;;;9.40;99.90;;;;;;6195838;23;20948;-86
2022/03/17 02:42:39;;;;;;;42.10;37.67;;;9.40;99.90;;;;;;6193515;23;20441;-86
2022/03/17 02:45:10;;;;;;;40.90;36.43;;;9.40;99.90;;;;;;6193967;23;20457;-85
2022/03/17 02:47:37;;;;;;;38.77;34.70;;;9.40;99.90;;;;;;6195931;23;20724;-85
2022/03/17 02:50:05;;;;;;;42.37;37.70;;;9.30;99.90;;;;;;6213247;23;20406;-85
2022/03/17 02:52:31;;;;;;;40.53;36.20;;;9.40;99.90;;;;;;6196424;23;20406;-85
2022/03/17 02:54:58;;;;;;;43.70;36.77;;;9.40;99.90;;;;;;6196537;23;20421;-85
2022/03/17 02:57:26;;;;;;;41.93;37.67;;;9.40;99.90;;;;;;6193195;23;20396;-84
2022/03/17 02:59:54;;;;;;;41.60;37.30;;;9.40;99.90;;;;;;6193911;23;20450;-85
2022/03/17 03:02:21;;;;;;;44.63;37.90;;;9.40;99.90;;;;;;6193769;23;20436;-85
2022/03/17 03:04:49;;;;;;;44.53;38.23;;;9.40;99.90;;;;;;6193004;23;20420;-85
2022/03/17 03:07:16;;;;;;;47.10;38.67;;;9.40;99.90;;;;;;6193564;23;20418;-85
2022/03/17 03:09:42;;;;;;;42.47;37.93;;;9.40;99.90;;;;;;6193877;23;20418;-85
2022/03/17 03:12:10;;;;;;;43.80;39.10;;;9.40;99.90;;;;;;6191714;23;20401;-84
2022/03/17 03:14:38;;;;;;;43.33;38.57;;;9.40;99.90;;;;;;6191522;23;20430;-85
2022/03/17 03:17:06;;;;;;;45.43;39.70;;;9.30;99.90;;;;;;6198600;23;20420;-85
2022/03/17 03:19:33;;;;;;;44.53;38.97;;;9.30;99.90;;;;;;6197584;23;20425;-84
2022/03/17 03:21:59;;;;;;;46.33;39.53;;;9.30;99.90;;;;;;6210817;23;20416;-85
2022/03/17 03:24:26;;;;;;;45.80;40.83;;;9.40;99.90;;;;;;6196280;23;20433;-86
2022/03/17 03:26:53;;;;;;;43.60;38.90;;;9.50;99.90;;;;;;6194146;23;21069;-86
2022/03/17 03:29:22;;;;;;;44.40;38.83;;;9.50;99.60;;;;;;6195347;23;20409;-85
2022/03/17 03:31:51;;;;;;;40.60;36.10;;;9.60;99.60;;;;;;6196191;23;20402;-85
2022/03/17 03:34:18;;;;;;;45.43;39.00;;;9.60;99.70;;;;;;6195490;23;20430;-85
2022/03/17 03:39:38;;;;;;;44.83;39.97;;;9.60;99.70;;;;;;6165085;23;20449;-85
2022/03/17 03:42:07;;;;;;;47.43;39.40;;;9.60;99.70;;;;;;6212142;23;20409;-85
2022/03/17 03:44:33;;;;;;;45.83;40.00;;;9.60;99.60;;;;;;6213878;23;20414;-85
2022/03/17 03:47:01;;;;;;;43.67;38.23;;;9.60;99.40;;;;;;6214002;23;20374;-85
2022/03/17 03:49:28;;;;;;;42.70;37.33;;;9.60;99.50;;;;;;6213989;23;20386;-85
2022/03/17 03:51:55;;;;;;;45.17;37.53;;;9.60;99.60;;;;;;6213856;23;20394;-86
2022/03/17 03:54:21;;;;;;;44.60;38.87;;;9.70;99.80;;;;;;6207356;23;20426;-85
2022/03/17 03:56:50;;;;;;;42.43;37.93;;;9.60;99.80;;;;;;6213409;23;20398;-86
2022/03/17 03:59:19;;;;;;;42.53;37.10;;;9.60;99.50;;;;;;6213944;23;20445;-84
2022/03/17 04:01:46;;;;;;;46.00;40.00;;;9.70;99.50;;;;;;6213751;23;20441;-85
2022/03/17 04:04:17;;;;;;;44.67;39.40;;;9.70;99.60;;;;;;6213178;23;20410;-85
2022/03/17 04:06:46;;;;;;;45.90;39.20;;;9.70;99.90;;;;;;6213169;23;20418;-86
2022/03/17 04:09:13;;;;;;;46.40;38.47;;;9.70;99.70;;;;;;6213188;23;20374;-86
2022/03/17 04:11:41;;;;;;;45.87;40.70;;;9.70;99.70;;;;;;6213007;23;20390;-86
2022/03/17 04:14:07;;;;;;;46.70;40.40;;;9.70;99.70;;;;;;6213231;23;20421;-85
2022/03/17 04:16:34;;;;;;;46.83;40.43;;;9.70;99.70;;;;;;6213119;23;20408;-86
2022/03/17 04:19:01;;;;;;;47.80;40.07;;;9.70;99.70;;;;;;6212885;23;20394;-86
2022/03/17 04:21:30;;;;;;;44.07;39.47;;;9.70;99.70;;;;;;6212448;23;20430;-86
2022/03/17 04:23:58;;;;;;;42.70;38.00;;;9.70;99.60;;;;;;6212606;23;20414;-86
2022/03/17 04:26:24;;;;;;;42.47;37.87;;;9.70;99.50;;;;;;6212373;23;20412;-86
2022/03/17 04:28:51;;;;;;;43.97;39.23;;;9.70;99.70;;;;;;6212166;23;20374;-85
2022/03/17 04:31:18;;;;;;;45.17;39.23;;;9.70;99.50;;;;;;6211681;23;20401;-86
2022/03/17 04:33:45;;;;;;;53.87;38.80;;;9.70;99.20;;;;;;6210495;23;20422;-85
2022/03/17 04:36:12;;;;;;;43.83;38.90;;;9.70;99.10;;;;;;6206571;23;20396;-87
2022/03/17 04:38:41;;;;;;;48.53;38.90;;;9.70;99.30;;;;;;6211787;23;20399;-87
2022/03/17 04:41:08;;;;;;;56.83;46.67;;;9.70;99.00;;;;;;6206693;23;20456;-85
2022/03/17 04:43:34;;;;;;;45.70;39.40;;;9.70;99.20;;;;;;6193825;23;20429;-85
2022/03/17 04:46:01;;;;;;;46.97;40.20;;;9.70;99.00;;;;;;6192994;23;20414;-84
2022/03/17 04:48:28;;;;;;;44.63;38.23;;;9.70;98.90;;;;;;6192197;23;20413;-84
2022/03/17 04:50:55;;;;;;;49.63;38.57;;;9.70;99.00;;;;;;6192572;23;20394;-84
2022/03/17 04:53:32;;;;;;;48.33;40.73;;;9.70;98.70;;;;;;6197945;23;20418;-84
2022/03/17 04:56:01;;;;;;;42.63;35.53;;;9.70;98.50;;;;;;6194945;23;20398;-85
2022/03/17 04:58:29;;;;;;;42.63;36.33;;;9.70;98.40;;;;;;6194975;23;20390;-84
2022/03/17 05:00:56;;;;;;;47.00;38.20;;;9.70;98.50;;;;;;6193144;23;20441;-85
2022/03/17 05:03:24;;;;;;;44.00;39.03;;;9.60;98.50;;;;;;6193794;23;20433;-85
2022/03/17 05:05:51;;;;;;;48.33;38.00;;;9.60;98.80;;;;;;6194175;23;20471;-85
2022/03/17 05:08:18;;;;;;;49.43;40.47;;;9.60;98.60;;;;;;6192683;23;20429;-84
2022/03/17 05:10:47;;;;;;;45.90;38.70;;;9.70;98.40;;;;;;6200203;23;20401;-85
2022/03/17 05:13:16;;;;;;;43.60;36.80;;;9.70;98.50;;;;;;6207994;23;20485;-85
2022/03/17 05:15:43;;;;;;;43.83;37.40;;;9.70;98.40;;;;;;6197123;23;20402;-86
2022/03/17 05:18:10;;;;;;;46.13;41.03;;;9.70;98.20;;;;;;6192005;23;20406;-85
2022/03/17 05:20:40;;;;;;;43.93;38.60;;;9.70;98.20;;;;;;6190904;23;20465;-85
2022/03/17 05:23:08;;;;;;;43.43;37.60;;;9.70;97.90;;;;;;6190686;23;20391;-85
2022/03/17 05:25:35;;;;;;;46.20;39.20;;;9.70;98.00;;;;;;6191727;23;20430;-86
2022/03/17 05:28:02;;;;;;;48.07;40.70;;;9.70;97.80;;;;;;6201858;23;20417;-85
2022/03/17 05:30:31;;;;;;;48.53;39.43;;;9.70;97.60;;;;;;6195212;23;20402;-85
2022/03/17 05:32:58;;;;;;;47.27;39.60;;;9.70;97.40;;;;;;6190790;23;20425;-86
2022/03/17 05:35:26;;;;;;;48.23;39.10;;;9.70;97.60;;;;;;6196341;23;20493;-84
2022/03/17 05:37:53;;;;;;;49.63;40.73;;;9.70;97.90;;;;;;6196291;23;20414;-85
2022/03/17 05:40:21;;;;;;;47.93;40.60;;;9.70;98.30;;;;;;6207207;23;20421;-83
2022/03/17 05:42:52;;;;;;;44.10;36.67;;;9.70;98.40;;;;;;6202287;23;20409;-84
2022/03/17 05:45:18;;;;;;;43.47;37.77;;;9.60;97.80;;;;;;6205130;23;20414;-85
2022/03/17 05:47:47;;;;;;;49.00;39.10;;;9.60;97.70;;;;;;6198424;23;20396;-85
2022/03/17 05:50:16;;;;;;;46.30;37.90;;;9.60;97.90;;;;;;6194797;23;20409;-84
2022/03/17 05:52:44;;;;;;;52.43;38.10;;;9.70;97.80;;;;;;6198325;23;20387;-84
2022/03/17 05:55:11;;;;;;;45.50;38.80;;;9.70;97.80;;;;;;6198655;23;20482;-82
2022/03/17 05:57:38;;;;;;;42.40;37.23;;;9.70;98.00;;;;;;6201567;23;20391;-83
2022/03/17 06:00:08;;;;;;;43.77;38.30;;;9.60;98.10;;;;;;6197465;23;20406;-83
2022/03/17 06:02:35;;;;;;;46.07;39.40;;;9.60;97.90;;;;;;6192067;23;20450;-85
2022/03/17 06:05:04;;;;;;;43.17;37.40;;;9.60;97.30;;;;;;6197407;23;20433;-85
2022/03/17 06:07:37;;;;;;;46.10;37.70;;;9.60;97.00;;;;;;6201240;23;20398;-85
2022/03/17 06:10:04;;;;;;;43.73;37.70;;;9.70;97.30;;;;;;6201693;23;20393;-85
2022/03/17 06:12:32;;;;;;;47.63;37.70;;;9.60;97.50;;;;;;6206991;23;20396;-84
2022/03/17 06:14:59;;;;;;;43.30;35.37;;;9.60;97.50;;;;;;6204772;23;20438;-84
2022/03/17 06:17:37;;;;;;;45.47;38.20;;;9.70;97.20;;;;;;6210106;23;20469;-85
2022/03/17 06:20:09;;;;;;;52.97;39.37;;;9.70;97.20;;;;;;6204800;23;20390;-85
2022/03/17 06:22:37;;;;;;;46.50;38.20;;;9.70;97.30;;;;;;6201215;23;20430;-85
2022/03/17 06:25:05;;;;;;;50.50;38.77;;;9.60;97.50;;;;;;6211502;23;20520;-85
2022/03/17 06:27:31;;;;;;;51.10;41.03;;;9.60;97.70;;;;;;6200468;23;20405;-85
2022/03/17 06:29:58;;;;;;;51.37;39.20;;;9.50;97.70;;;;;;6197160;23;20428;-85
2022/03/17 06:32:26;;;;;;;44.77;38.70;;;9.50;97.60;;;;;;6200135;23;20412;-85
2022/03/17 06:34:53;;;;;;;52.53;39.57;;;9.70;97.50;;;;;;6198863;23;20952;-85
2022/03/17 06:37:21;;;;;;;46.17;38.80;;;9.70;97.30;;;;;;6198349;23;20410;-85
2022/03/17 06:39:47;;;;;;;43.80;36.27;;;9.70;97.30;;;;;;6198477;23;20409;-84
2022/03/17 06:42:14;;;;;;;46.90;38.50;;;9.90;97.30;;;;;;6197655;23;20729;-84
2022/03/17 06:44:41;;;;;;;40.20;34.40;;;10.00;96.60;;;;;;6198244;23;20775;-84
2022/03/17 06:47:08;;;;;;;42.97;38.20;;;10.00;96.30;;;;;;6198519;23;20406;-84
2022/03/17 06:49:34;;;;;;;45.17;36.80;;;10.10;96.10;;;;;;6205790;23;20414;-83
2022/03/17 06:52:01;;;;;;;44.73;36.80;;;10.10;96.00;;;;;;6205958;23;20910;-84
2022/03/17 06:54:33;;;;;;;44.90;36.50;;;10.10;95.90;;;;;;6202964;23;20439;-84
2022/03/17 06:57:00;;;;;;;44.10;38.27;;;10.10;95.80;;;;;;6200453;23;20461;-85
2022/03/17 06:59:32;;;;;;;48.17;39.10;;;10.20;95.70;;;;;;6212672;23;20394;-84
2022/03/17 07:01:58;;;;;;;42.57;36.97;;;10.20;95.80;;;;;;6200130;23;20437;-85
2022/03/17 07:04:25;;;;;;;45.97;37.10;;;10.20;95.60;;;;;;6199206;23;20410;-85
2022/03/17 07:06:52;;;;;;;48.87;38.40;;;10.10;95.40;;;;;;6200844;23;20785;-85
2022/03/17 07:09:18;;;;;;;44.10;36.33;;;10.10;95.50;;;;;;6197630;23;20447;-85
2022/03/17 07:11:47;;;;;;;48.47;36.37;;;10.10;95.50;;;;;;6204936;23;20410;-85
2022/03/17 07:14:13;;;;;;;41.20;35.77;;;10.10;95.50;;;;;;6199098;23;20438;-85
2022/03/17 07:16:40;;;;;;;48.10;38.43;;;10.10;95.50;;;;;;6196582;23;20492;-84
2022/03/17 07:19:07;;;;;;;40.13;35.23;;;10.10;95.50;;;;;;6201218;23;20402;-84
2022/03/17 07:21:34;;;;;;;42.80;36.10;;;10.20;95.20;;;;;;6190263;23;20454;-84
2022/03/17 07:24:00;;;;;;;41.10;36.60;;;10.30;95.50;;;;;;6205694;23;20418;-83
2022/03/17 07:26:27;;;;;;;42.33;36.40;;;10.30;95.10;;;;;;6205412;23;20462;-84
2022/03/17 07:28:56;;;;;;;41.93;35.97;;;10.30;95.30;;;;;;6203721;23;20409;-84
2022/03/17 07:31:24;;;;;;;44.40;36.80;;;10.40;95.40;;;;;;6197100;23;20432;-84
2022/03/17 07:33:51;;;;;;;47.17;38.50;;;10.40;95.50;;;;;;6197693;23;20836;-84
2022/03/17 07:36:18;;;;;;;44.07;38.10;;;10.50;95.40;;;;;;6198014;23;20398;-85
2022/03/17 07:38:44;;;;;;;45.83;40.13;;;10.50;95.60;;;;;;6197893;23;20410;-84
2022/03/17 07:41:11;;;;;;;47.80;39.83;;;10.60;95.80;;;;;;6197963;23;20445;-84
2022/03/17 07:43:38;;;;;;;43.30;37.10;;;10.60;96.20;;;;;;6197160;23;20449;-84
2022/03/17 07:46:06;;;;;;;43.10;36.60;;;10.70;96.00;;;;;;6196488;23;20416;-85
2022/03/17 07:48:33;;;;;;;42.50;36.97;;;10.70;95.90;;;;;;6200485;23;20413;-83
2022/03/17 07:51:02;;;;;;;44.83;39.27;;;10.70;95.60;;;;;;6210847;23;20473;-84
2022/03/17 07:53:29;;;;;;;43.80;36.47;;;10.80;95.80;;;;;;6206548;23;20405;-83
2022/03/17 07:55:56;;;;;;;42.80;37.77;;;10.90;96.00;;;;;;6202418;23;20520;-84
2022/03/17 07:58:24;;;;;;;49.13;38.43;;;10.90;95.70;;;;;;6199386;23;20417;-83
2022/03/17 08:00:52;;;;;;;48.00;39.10;;;10.90;95.70;;;;;;6196725;23;20394;-84
2022/03/17 08:03:20;;;;;;;44.77;38.23;;;11.00;95.40;;;;;;6202905;23;20443;-83
2022/03/17 08:05:47;;;;;;;48.70;40.10;;;11.00;95.50;;;;;;6204438;23;20961;-85
2022/03/17 08:08:14;;;;;;;45.27;37.03;;;11.10;95.20;;;;;;6207601;23;20478;-83
2022/03/17 08:10:41;;;;;;;46.53;40.03;;;11.00;94.70;;;;;;6199998;23;20399;-84
2022/03/17 08:13:09;;;;;;;42.83;37.80;;;10.90;94.80;;;;;;6197600;23;20414;-84
2022/03/17 08:15:36;;;;;;;50.17;38.37;;;10.90;94.90;;;;;;6196185;23;20491;-85
2022/03/17 08:18:03;;;;;;;49.40;38.70;;;10.90;95.20;;;;;;6195386;23;20413;-85
2022/03/17 08:20:31;;;;;;;44.27;38.33;;;11.00;95.10;;;;;;6194926;23;20413;-85
2022/03/17 08:22:58;;;;;;;51.10;40.67;;;10.90;94.90;;;;;;6201047;23;20442;-85
2022/03/17 08:25:25;;;;;;;46.93;39.47;;;11.00;95.10;;;;;;6210277;23;20423;-85
2022/03/17 08:27:52;;;;;;;46.43;39.33;;;11.00;95.00;;;;;;6205950;23;20405;-85
2022/03/17 08:30:18;;;;;;;50.00;38.90;;;11.00;95.20;;;;;;6207064;23;20404;-85
2022/03/17 08:32:46;;;;;;;49.37;39.83;;;11.10;95.30;;;;;;6201509;23;20405;-85
2022/03/17 08:35:14;;;;;;;50.07;40.10;;;11.10;95.40;;;;;;6199514;23;20426;-85
2022/03/17 08:37:43;;;;;;;46.00;38.60;;;11.20;95.20;;;;;;6197896;23;20462;-85
2022/03/17 08:40:11;;;;;;;50.10;41.13;;;11.30;95.10;;;;;;6201404;23;20387;-85
2022/03/17 08:42:38;;;;;;;45.50;39.20;;;11.30;94.90;;;;;;6200917;23;20430;-85
2022/03/17 08:49:18;;;;;;;45.13;36.80;;;11.30;94.80;;;;;;6199941;23;20505;-85
2022/03/17 08:50:47;;;;;;;47.30;39.70;;;11.30;94.70;;;;;;6202302;23;20409;-85
2022/03/17 08:53:15;;;;;;;43.80;37.17;;;11.30;94.90;;;;;;6196974;23;20441;-85
2022/03/17 08:55:42;;;;;;;47.63;39.40;;;11.40;95.00;;;;;;6196820;23;20406;-86
2022/03/17 08:58:09;;;;;;;48.70;40.73;;;11.40;95.00;;;;;;6198368;23;20408;-85
2022/03/17 09:00:36;;;;;;;44.20;38.40;;;11.50;95.30;;;;;;6199678;23;20416;-85
2022/03/17 09:03:03;;;;;;;46.83;40.77;;;11.50;94.90;;;;;;6198616;23;20445;-85
2022/03/17 09:05:31;;;;;;;46.47;39.30;;;11.60;94.80;;;;;;6198912;23;20426;-86
2022/03/17 09:07:57;;;;;;;50.27;41.47;;;11.60;94.80;;;;;;6205254;23;20405;-85
2022/03/17 09:10:26;;;;;;;50.53;42.17;;;11.60;94.70;;;;;;6204447;23;20406;-84
2022/03/17 09:12:55;;;;;;;51.03;41.17;;;11.60;94.90;;;;;;6197327;23;20406;-85
2022/03/17 09:15:21;;;;;;;45.07;40.13;;;11.60;95.10;;;;;;6197112;23;20484;-85
2022/03/17 09:17:48;;;;;;;45.30;38.43;;;11.70;95.20;;;;;;6199232;23;20417;-85
2022/03/17 09:20:15;;;;;;;46.93;38.03;;;11.70;95.10;;;;;;6203149;23;20462;-86
2022/03/17 09:22:42;;;;;;;48.60;40.50;;;11.70;94.70;;;;;;6196872;23;20499;-84
2022/03/17 09:25:10;;;;;;;51.50;39.90;;;11.80;94.60;;;;;;6195525;23;20428;-85
2022/03/17 09:27:38;;;;;;;50.83;40.77;;;11.80;94.70;;;;;;6195449;23;20405;-85
2022/03/17 09:30:06;;;;;;;44.67;38.83;;;11.90;94.90;;;;;;6196953;23;20406;-84
2022/03/17 09:32:33;;;;;;;42.57;37.70;;;11.80;94.70;;;;;;6202451;23;20398;-85
2022/03/17 09:35:01;;;;;;;44.10;37.80;;;12.00;94.90;;;;;;6199447;23;21034;-85
2022/03/17 09:37:27;;;;;;;50.03;39.93;;;12.10;94.60;;;;;;6198057;23;20740;-85
2022/03/17 09:39:54;;;;;;;45.77;39.10;;;12.20;94.50;;;;;;6198394;23;20430;-84
2022/03/17 09:42:23;;;;;;;49.50;41.50;;;12.20;94.30;;;;;;6199836;23;20446;-85
2022/03/17 09:44:52;;;;;;;46.50;40.83;;;12.20;94.00;;;;;;6211830;23;20418;-85
2022/03/17 09:47:21;;;;;;;46.87;40.00;;;12.20;94.00;;;;;;6206637;23;20398;-85
2022/03/17 09:49:49;;;;;;;46.30;40.10;;;12.20;94.00;;;;;;6202847;23;20406;-84
2022/03/17 09:52:17;;;;;;;49.87;40.13;;;12.20;94.00;;;;;;6198420;23;20409;-85
2022/03/17 09:54:45;;;;;;;47.50;40.83;;;12.10;94.30;;;;;;6198979;23;20429;-85
2022/03/17 09:57:12;;;;;;;50.03;39.87;;;12.20;94.50;;;;;;6199703;23;20887;-85
2022/03/17 09:59:38;;;;;;;48.67;40.70;;;12.40;94.60;;;;;;6198928;23;20390;-85
2022/03/17 10:02:06;;;;;;;51.90;41.47;;;12.50;94.30;;;;;;6203731;23;20438;-85
2022/03/17 10:04:35;;;;;;;46.27;39.03;;;12.50;94.10;;;;;;6201160;23;20461;-85
2022/03/17 10:07:02;;;;;;;44.80;39.00;;;12.60;94.10;;;;;;6198577;23;20414;-85
2022/03/17 10:09:31;;;;;;;45.47;40.60;;;12.70;93.90;;;;;;6198609;23;20407;-84
2022/03/17 10:12:02;;;;;;;53.77;42.97;;;12.80;93.50;;;;;;6197366;23;20427;-85
2022/03/17 10:14:39;;;;;;;46.50;41.33;;;12.90;93.70;;;;;;6201826;23;20433;-85
2022/03/17 10:17:29;;;;;;;50.07;39.90;;;12.90;93.20;;;;;;6203938;23;20375;-85
2022/03/17 10:20:11;;;;;;;47.00;41.47;;;12.80;93.30;;;;;;6199892;23;20375;-86
2022/03/17 10:22:42;;;;;;;47.23;40.17;;;12.70;93.30;;;;;;6199078;23;20418;-85
2022/03/17 10:25:09;;;;;;;46.43;41.37;;;12.70;93.60;;;;;;6200433;23;20430;-84
2022/03/17 10:27:40;;;;;;;48.90;41.87;;;12.70;93.60;;;;;;6199257;23;20409;-85
2022/03/17 10:30:08;;;;;;;48.27;40.17;;;12.80;93.50;;;;;;6199581;23;20403;-84
2022/03/17 10:32:37;;;;;;;47.23;40.33;;;13.00;93.50;;;;;;6209820;23;20403;-85
2022/03/17 10:35:06;;;;;;;45.17;40.27;;;13.00;93.30;;;;;;6202891;23;20442;-86
2022/03/17 10:37:37;;;;;;;46.23;41.23;;;13.00;93.20;;;;;;6205854;23;20399;-86
2022/03/17 10:40:10;;;;;;;46.93;41.73;;;13.00;93.00;;;;;;6212383;23;20398;-85
2022/03/17 10:42:38;;;;;;;45.93;39.70;;;13.00;93.20;;;;;;6207126;23;20426;-84
2022/03/17 10:45:10;;;;;;;46.97;41.97;;;13.10;93.30;;;;;;6208539;23;20426;-85
2022/03/17 10:47:40;;;;;;;48.20;43.00;;;13.30;93.10;;;;;;6205164;23;20390;-86
2022/03/17 10:50:12;;;;;;;56.97;45.13;;;13.50;93.00;;;;;;6210651;23;20392;-86
2022/03/17 10:52:47;;;;;;;46.30;41.30;;;13.60;93.10;;;;;;6206114;23;20397;-86
2022/03/17 10:55:15;;;;;;;47.10;39.97;;;13.70;93.10;;;;;;6204190;23;20433;-86
2022/03/17 10:57:42;;;;;;;45.20;38.80;;;13.70;92.70;;;;;;6200832;23;20474;-87
2022/03/17 11:00:20;;;;;;;46.77;41.53;;;13.90;93.00;;;;;;6201030;23;20438;-86
2022/03/17 11:02:50;;;;;;;47.07;42.07;;;14.00;92.90;;;;;;6202430;23;20428;-86
2022/03/17 11:05:18;;;;;;;45.20;37.70;;;14.10;92.50;;;;;;6198800;23;20410;-87
2022/03/17 11:07:46;;;;;;;46.33;39.60;;;14.00;91.90;;;;;;6198835;23;20791;-86
2022/03/17 11:10:16;;;;;;;42.37;37.77;;;14.10;92.30;;;;;;6198357;23;20415;-86
2022/03/17 11:12:43;;;;;;;44.27;39.60;;;14.30;92.20;;;;;;6198245;23;20479;-85
2022/03/17 11:15:10;;;;;;;44.87;39.33;;;14.20;91.80;;;;;;6198817;23;20478;-86
2022/03/17 11:17:40;;;;;;;44.57;39.97;;;14.40;92.00;;;;;;6198579;23;20419;-85
2022/03/17 11:20:11;;;;;;;42.57;38.07;;;14.60;91.80;;;;;;6207573;23;20464;-84
2022/03/17 11:22:39;;;;;;;44.03;39.40;;;14.70;91.50;;;;;;6212954;23;20435;-86
2022/03/17 11:25:23;;;;;;;45.83;41.03;;;14.60;91.60;;;;;;6212472;23;20499;-86
2022/03/17 11:27:51;;;;;;;44.23;39.50;;;14.70;91.50;;;;;;6212437;23;20393;-84
2022/03/17 11:30:19;;;;;;;45.07;39.17;;;14.60;91.50;;;;;;6210589;23;20398;-85
2022/03/17 11:32:54;;;;;;;43.30;38.60;;;14.50;91.50;;;;;;6212385;23;20408;-85
2022/03/17 11:35:29;;;;;;;43.70;38.90;;;14.50;91.70;;;;;;6213068;23;20449;-85
2022/03/17 11:38:14;;;;;;;40.90;36.43;;;14.60;91.70;;;;;;6213899;23;20380;-86
2022/03/17 11:41:09;;;;;;;47.33;39.83;;;14.60;91.70;;;;;;6213730;23;20453;-87
2022/03/17 11:43:58;;;;;;;42.53;37.93;;;14.50;92.00;;;;;;6212284;23;20440;-86
2022/03/17 11:46:36;;;;;;;42.50;37.90;;;14.50;92.20;;;;;;6205895;23;20406;-86
2022/03/17 11:49:25;;;;;;;43.97;37.40;;;14.50;92.50;;;;;;6212253;23;20397;-85
2022/03/17 11:52:06;;;;;;;43.47;36.47;;;14.50;92.80;;;;;;6212224;23;20373;-86
2022/03/17 11:54:33;;;;;;;41.07;36.67;;;14.50;92.70;;;;;;6212230;23;20414;-86
2022/03/17 11:57:04;;;;;;;40.40;35.90;;;14.50;93.10;;;;;;6212279;23;20437;-86
2022/03/17 11:59:51;;;;;;;39.53;35.53;;;14.40;93.40;;;;;;6212646;23;20398;-85
2022/03/17 12:02:19;;;;;;;41.73;37.27;;;14.40;93.70;;;;;;6211941;23;20401;-87
2022/03/17 12:04:50;;;;;;;43.63;34.40;;;14.20;94.10;;;;;;6212523;23;21081;-86
2022/03/17 12:07:20;;;;;;;42.17;37.57;;;14.10;94.50;;;;;;6212922;23;20393;-86
2022/03/17 12:09:48;;;;;;;42.80;38.13;;;14.10;94.90;;;;;;6212794;23;20388;-87
2022/03/17 12:12:25;;;;;;;42.00;37.37;;;14.10;95.20;;;;;;6207144;23;20420;-85
2022/03/17 12:14:54;;;;;;;43.23;38.07;;;14.00;95.50;;;;;;6199110;23;20446;-87
2022/03/17 12:17:22;;;;;;;43.30;36.47;;;14.00;95.90;;;;;;6196659;23;20436;-86
2022/03/17 12:19:51;;;;;;;43.50;38.73;;;14.00;96.40;;;;;;6202750;23;20879;-86
2022/03/17 12:22:36;;;;;;;47.83;40.67;;;14.00;97.10;;;;;;6203899;23;20404;-86
2022/03/17 12:25:12;;;;;;;48.33;39.33;;;13.90;96.80;;;;;;6205129;23;20465;-84
2022/03/17 12:27:40;;;;;;;45.73;39.47;;;14.00;97.00;;;;;;6198046;23;20401;-85
2022/03/17 12:30:09;;;;;;;49.00;41.90;;;14.00;97.00;;;;;;6197301;23;20401;-86
2022/03/17 12:32:38;;;;;;;44.33;37.47;;;14.10;96.80;;;;;;6198177;23;20401;-85
2022/03/17 12:35:08;;;;;;;42.87;38.20;;;14.20;96.70;;;;;;6205992;23;20475;-85
2022/03/17 12:37:37;;;;;;;42.57;38.17;;;14.30;96.20;;;;;;6202611;23;20409;-85
2022/03/17 12:40:06;;;;;;;42.53;37.67;;;14.30;95.60;;;;;;6207364;23;20423;-85
2022/03/17 12:42:40;;;;;;;46.43;37.33;;;14.30;95.40;;;;;;6201252;23;20509;-86
2022/03/17 12:45:08;;;;;;;43.87;39.00;;;14.20;95.20;;;;;;6196024;23;20415;-85
2022/03/17 12:47:36;;;;;;;42.57;37.90;;;14.20;94.80;;;;;;6197747;23;20409;-85
2022/03/17 12:50:07;;;;;;;39.70;35.50;;;14.20;94.10;;;;;;6197089;23;20412;-86